PWSweather.com
Personal Weather Stations
Station Observations
OZIERI
Punta Idda, OzieriIT

Punta IddaOzieriIT

Lat: 40.584142, Lon: 9.007657999999992

Elevation: 1483

Station Type: Lacrosse ws2350

Latest ConditionsUpdated 8:45:08 AM GMT+01:01 Monday, Dec 10, 2018
Currently Today's Max Today's Min Today's Average
Temperature 49.8°F9.9°C 50.7°F10.4°C 49.6°F9.8°C 50.1°F10.1°C
Dew Point 41.5°F5.3°C 43.7°F6.5°C 41.5°F5.3°C 42.4°F5.8°C
Winds 6.7 mph WSW10.8 kmh WSW 11.0 mph -17.7 kmh - - 7.1 mph 11.4 kmh
Wind Gusts 13.2 mph21.2 kmh 23.5 mph37.8 kmh - -
Humidity 73% 78% 72% 75%
Pressure 30.14 in1020.7 mb 30.14 in1020.7 mb 30.10 in1019.3 mb -
Hour Temp Dew Point Humidity Winds Wind Gusts Pressure Precip Precip Rate Daily Precip Total
08:45 AM 49.8°F9.9°C 41.5°F5.3°C 73% 6.7 mph WSW10.8 kmh WSW 13.2 mph21.2 kmh 30.14 in1020.7 mb 0.00 in0.0 mm 0.00 in0.0 mm 0.00 in0.0 mm
08:42 AM 49.8°F9.9°C 41.5°F5.3°C 73% 6.5 mph NW10.5 kmh NW 9.2 mph14.8 kmh 30.14 in1020.7 mb 0.00 in0.0 mm 0.00 in0.0 mm 0.00 in0.0 mm
08:40 AM 49.8°F9.9°C 41.9°F5.5°C 74% 6.0 mph WSW9.7 kmh WSW 11.9 mph19.2 kmh 30.14 in1020.7 mb 0.00 in0.0 mm 0.00 in0.0 mm 0.00 in0.0 mm
08:38 AM 49.8°F9.9°C 41.9°F5.5°C 74% 5.4 mph 8.7 kmh 8.3 mph13.4 kmh 30.14 in1020.7 mb 0.00 in0.0 mm 0.00 in0.0 mm 0.00 in0.0 mm
08:36 AM 49.8°F9.9°C 41.9°F5.5°C 74% 5.1 mph 8.2 kmh 8.9 mph14.3 kmh 30.14 in1020.7 mb 0.00 in0.0 mm 0.00 in0.0 mm 0.00 in0.0 mm
08:34 AM 49.8°F9.9°C 41.5°F5.3°C 73% 5.4 mph NW8.7 kmh NW 7.2 mph11.6 kmh 30.14 in1020.7 mb 0.00 in0.0 mm 0.00 in0.0 mm 0.00 in0.0 mm
08:31 AM 49.8°F9.9°C 41.5°F5.3°C 73% 6.0 mph W9.7 kmh W 11.0 mph17.7 kmh 30.14 in1020.7 mb 0.00 in0.0 mm 0.00 in0.0 mm 0.00 in0.0 mm
08:29 AM 49.8°F9.9°C 41.9°F5.5°C 74% 5.4 mph NNW8.7 kmh NNW 8.3 mph13.4 kmh 30.14 in1020.7 mb 0.00 in0.0 mm 0.00 in0.0 mm 0.00 in0.0 mm
08:27 AM 49.8°F9.9°C 41.9°F5.5°C 74% 4.9 mph 7.9 kmh 7.2 mph11.6 kmh 30.14 in1020.7 mb 0.00 in0.0 mm 0.00 in0.0 mm 0.00 in0.0 mm
08:25 AM 49.8°F9.9°C 41.9°F5.5°C 74% 5.1 mph SW8.2 kmh SW 8.5 mph13.7 kmh 30.14 in1020.7 mb 0.00 in0.0 mm 0.00 in0.0 mm 0.00 in0.0 mm
08:23 AM 49.8°F9.9°C 41.9°F5.5°C 74% 4.9 mph NW7.9 kmh NW 5.1 mph8.2 kmh 30.14 in1020.7 mb 0.00 in0.0 mm 0.00 in0.0 mm 0.00 in0.0 mm
08:21 AM 49.8°F9.9°C 41.9°F5.5°C 74% 5.1 mph W8.2 kmh W 7.8 mph12.6 kmh 30.14 in1020.7 mb 0.00 in0.0 mm 0.00 in0.0 mm 0.00 in0.0 mm
08:19 AM 49.8°F9.9°C 41.9°F5.5°C 74% 5.6 mph WNW9.0 kmh WNW 6.7 mph10.8 kmh 30.14 in1020.7 mb 0.00 in0.0 mm 0.00 in0.0 mm 0.00 in0.0 mm
08:17 AM 49.8°F9.9°C 41.9°F5.5°C 74% 6.3 mph W10.1 kmh W 11.9 mph19.2 kmh 30.14 in1020.7 mb 0.00 in0.0 mm 0.00 in0.0 mm 0.00 in0.0 mm
08:15 AM 49.8°F9.9°C 41.9°F5.5°C 74% 6.3 mph WSW10.1 kmh WSW 11.2 mph18.0 kmh 30.13 in1020.3 mb 0.00 in0.0 mm 0.00 in0.0 mm 0.00 in0.0 mm
08:12 AM 49.6°F9.8°C 41.7°F5.4°C 74% 6.0 mph W9.7 kmh W 10.1 mph16.3 kmh 30.13 in1020.3 mb 0.00 in0.0 mm 0.00 in0.0 mm 0.00 in0.0 mm
08:10 AM 49.6°F9.8°C 41.7°F5.4°C 74% 6.0 mph WNW9.7 kmh WNW 12.8 mph20.6 kmh 30.14 in1020.7 mb 0.00 in0.0 mm 0.00 in0.0 mm 0.00 in0.0 mm
08:08 AM 49.6°F9.8°C 42.1°F5.6°C 75% 5.1 mph WSW8.2 kmh WSW 8.3 mph13.4 kmh 30.14 in1020.7 mb 0.00 in0.0 mm 0.00 in0.0 mm 0.00 in0.0 mm
08:06 AM 49.6°F9.8°C 42.1°F5.6°C 75% 4.5 mph NW7.2 kmh NW 6.9 mph11.1 kmh 30.14 in1020.7 mb 0.00 in0.0 mm 0.00 in0.0 mm 0.00 in0.0 mm
08:04 AM 49.6°F9.8°C 42.1°F5.6°C 75% 3.8 mph NNW6.1 kmh NNW 5.8 mph9.3 kmh 30.14 in1020.7 mb 0.00 in0.0 mm 0.00 in0.0 mm 0.00 in0.0 mm
08:01 AM 49.6°F9.8°C 42.1°F5.6°C 75% 4.0 mph WNW6.4 kmh WNW 5.8 mph9.3 kmh 30.14 in1020.7 mb 0.00 in0.0 mm 0.00 in0.0 mm 0.00 in0.0 mm
07:59 AM 49.6°F9.8°C 42.1°F5.6°C 75% 4.3 mph W6.9 kmh W 4.5 mph7.2 kmh 30.13 in1020.3 mb 0.00 in0.0 mm 0.00 in0.0 mm 0.00 in0.0 mm
07:57 AM 49.6°F9.8°C 42.1°F5.6°C 75% 4.9 mph WNW7.9 kmh WNW 6.5 mph10.5 kmh 30.13 in1020.3 mb 0.00 in0.0 mm 0.00 in0.0 mm 0.00 in0.0 mm
07:55 AM 49.6°F9.8°C 42.4°F5.8°C 76% 4.9 mph WNW7.9 kmh WNW 10.7 mph17.2 kmh 30.13 in1020.3 mb 0.00 in0.0 mm 0.00 in0.0 mm 0.00 in0.0 mm
07:52 AM 49.6°F9.8°C 42.4°F5.8°C 76% 4.7 mph W7.6 kmh W 8.3 mph13.4 kmh 30.13 in1020.3 mb 0.00 in0.0 mm 0.00 in0.0 mm 0.00 in0.0 mm
07:50 AM 49.6°F9.8°C 42.4°F5.8°C 76% 4.9 mph SW7.9 kmh SW 7.2 mph11.6 kmh 30.13 in1020.3 mb 0.00 in0.0 mm 0.00 in0.0 mm 0.00 in0.0 mm
07:48 AM 49.6°F9.8°C 42.4°F5.8°C 76% 5.8 mph W9.3 kmh W 14.3 mph23.0 kmh 30.13 in1020.3 mb 0.00 in0.0 mm 0.00 in0.0 mm 0.00 in0.0 mm
07:46 AM 49.6°F9.8°C 42.4°F5.8°C 76% 5.1 mph NNW8.2 kmh NNW 10.3 mph16.6 kmh 30.12 in1020.0 mb 0.00 in0.0 mm 0.00 in0.0 mm 0.00 in0.0 mm
07:43 AM 49.6°F9.8°C 42.4°F5.8°C 76% 5.1 mph WSW8.2 kmh WSW 10.7 mph17.2 kmh 30.13 in1020.3 mb 0.00 in0.0 mm 0.00 in0.0 mm 0.00 in0.0 mm
07:41 AM 49.6°F9.8°C 42.4°F5.8°C 76% 4.5 mph NW7.2 kmh NW 9.2 mph14.8 kmh 30.12 in1020.0 mb 0.00 in0.0 mm 0.00 in0.0 mm 0.00 in0.0 mm
07:39 AM 49.6°F9.8°C 42.4°F5.8°C 76% 4.0 mph NW6.4 kmh NW 5.4 mph8.7 kmh 30.12 in1020.0 mb 0.00 in0.0 mm 0.00 in0.0 mm 0.00 in0.0 mm
07:37 AM 49.6°F9.8°C 42.1°F5.6°C 75% 4.9 mph W7.9 kmh W 7.8 mph12.6 kmh 30.12 in1020.0 mb 0.00 in0.0 mm 0.00 in0.0 mm 0.00 in0.0 mm
07:34 AM 49.6°F9.8°C 42.1°F5.6°C 75% 4.7 mph NW7.6 kmh NW 8.1 mph13.0 kmh 30.12 in1020.0 mb 0.00 in0.0 mm 0.00 in0.0 mm 0.00 in0.0 mm
07:32 AM 49.6°F9.8°C 42.1°F5.6°C 75% 5.4 mph W8.7 kmh W 8.7 mph14.0 kmh 30.12 in1020.0 mb 0.00 in0.0 mm 0.00 in0.0 mm 0.00 in0.0 mm
07:30 AM 49.8°F9.9°C 42.3°F5.7°C 75% 4.0 mph SE6.4 kmh SE 8.1 mph13.0 kmh 30.12 in1020.0 mb 0.00 in0.0 mm 0.00 in0.0 mm 0.00 in0.0 mm
07:28 AM 49.8°F9.9°C 42.3°F5.7°C 75% 5.4 mph WNW8.7 kmh WNW 7.6 mph12.2 kmh 30.12 in1020.0 mb 0.00 in0.0 mm 0.00 in0.0 mm 0.00 in0.0 mm
07:26 AM 49.8°F9.9°C 42.3°F5.7°C 75% 5.8 mph WNW9.3 kmh WNW 8.7 mph14.0 kmh 30.12 in1020.0 mb 0.00 in0.0 mm 0.00 in0.0 mm 0.00 in0.0 mm
07:23 AM 49.8°F9.9°C 42.3°F5.7°C 75% 6.3 mph WSW10.1 kmh WSW 7.6 mph12.2 kmh 30.12 in1020.0 mb 0.00 in0.0 mm 0.00 in0.0 mm 0.00 in0.0 mm
07:21 AM 49.6°F9.8°C 42.1°F5.6°C 75% 6.9 mph WNW11.1 kmh WNW 13.9 mph22.4 kmh 30.12 in1020.0 mb 0.00 in0.0 mm 0.00 in0.0 mm 0.00 in0.0 mm
07:19 AM 49.8°F9.9°C 42.6°F5.9°C 76% 6.9 mph W11.1 kmh W 10.1 mph16.3 kmh 30.12 in1020.0 mb 0.00 in0.0 mm 0.00 in0.0 mm 0.00 in0.0 mm
07:17 AM 49.6°F9.8°C 42.4°F5.8°C 76% 8.1 mph WNW13.0 kmh WNW 11.4 mph18.3 kmh 30.12 in1020.0 mb 0.00 in0.0 mm 0.00 in0.0 mm 0.00 in0.0 mm
07:14 AM 49.6°F9.8°C 42.4°F5.8°C 76% 8.1 mph NNE13.0 kmh NNE 10.7 mph17.2 kmh 30.12 in1020.0 mb 0.00 in0.0 mm 0.00 in0.0 mm 0.00 in0.0 mm
07:12 AM 49.6°F9.8°C 42.4°F5.8°C 76% 8.1 mph WNW13.0 kmh WNW 16.3 mph26.2 kmh 30.12 in1020.0 mb 0.00 in0.0 mm 0.00 in0.0 mm 0.00 in0.0 mm
07:10 AM 49.6°F9.8°C 42.4°F5.8°C 76% 5.6 mph NW9.0 kmh NW 12.1 mph19.5 kmh 30.12 in1020.0 mb 0.00 in0.0 mm 0.00 in0.0 mm 0.00 in0.0 mm
07:08 AM 49.6°F9.8°C 42.4°F5.8°C 76% 4.5 mph W7.2 kmh W 9.6 mph15.4 kmh 30.12 in1020.0 mb 0.00 in0.0 mm 0.00 in0.0 mm 0.00 in0.0 mm
07:06 AM 49.8°F9.9°C 42.6°F5.9°C 76% 4.0 mph NW6.4 kmh NW 6.7 mph10.8 kmh 30.12 in1020.0 mb 0.00 in0.0 mm 0.00 in0.0 mm 0.00 in0.0 mm
07:04 AM 49.8°F9.9°C 42.6°F5.9°C 76% 4.0 mph NNW6.4 kmh NNW 6.9 mph11.1 kmh 30.12 in1020.0 mb 0.00 in0.0 mm 0.00 in0.0 mm 0.00 in0.0 mm
07:02 AM 49.8°F9.9°C 42.6°F5.9°C 76% 4.9 mph NNW7.9 kmh NNW 12.8 mph20.6 kmh 30.12 in1020.0 mb 0.00 in0.0 mm 0.00 in0.0 mm 0.00 in0.0 mm
06:59 AM 49.8°F9.9°C 42.6°F5.9°C 76% 4.5 mph NW7.2 kmh NW 5.8 mph9.3 kmh 30.12 in1020.0 mb 0.00 in0.0 mm 0.00 in0.0 mm 0.00 in0.0 mm
06:57 AM 49.8°F9.9°C 42.3°F5.7°C 75% 4.7 mph WSW7.6 kmh WSW 6.3 mph10.1 kmh 30.12 in1020.0 mb 0.00 in0.0 mm 0.00 in0.0 mm 0.00 in0.0 mm
06:55 AM 49.8°F9.9°C 42.3°F5.7°C 75% 5.1 mph NW8.2 kmh NW 8.9 mph14.3 kmh 30.12 in1020.0 mb 0.00 in0.0 mm 0.00 in0.0 mm 0.00 in0.0 mm
06:53 AM 49.8°F9.9°C 42.3°F5.7°C 75% 4.7 mph NW7.6 kmh NW 5.8 mph9.3 kmh 30.12 in1020.0 mb 0.00 in0.0 mm 0.00 in0.0 mm 0.00 in0.0 mm
06:50 AM 49.8°F9.9°C 41.9°F5.5°C 74% 5.1 mph W8.2 kmh W 9.8 mph15.8 kmh 30.12 in1020.0 mb 0.00 in0.0 mm 0.00 in0.0 mm 0.00 in0.0 mm
06:48 AM 49.8°F9.9°C 41.9°F5.5°C 74% 4.7 mph WNW7.6 kmh WNW 7.4 mph11.9 kmh 30.12 in1020.0 mb 0.00 in0.0 mm 0.00 in0.0 mm 0.00 in0.0 mm
06:46 AM 49.8°F9.9°C 41.9°F5.5°C 74% 5.4 mph W8.7 kmh W 6.3 mph10.1 kmh 30.12 in1020.0 mb 0.00 in0.0 mm 0.00 in0.0 mm 0.00 in0.0 mm
06:44 AM 49.8°F9.9°C 41.9°F5.5°C 74% 6.3 mph NW10.1 kmh NW 13.4 mph21.6 kmh 30.12 in1020.0 mb 0.00 in0.0 mm 0.00 in0.0 mm 0.00 in0.0 mm
06:42 AM 49.8°F9.9°C 41.9°F5.5°C 74% 5.4 mph WNW8.7 kmh WNW 7.4 mph11.9 kmh 30.12 in1020.0 mb 0.00 in0.0 mm 0.00 in0.0 mm 0.00 in0.0 mm
06:39 AM 50.2°F10.1°C 42.3°F5.7°C 74% 5.6 mph NW9.0 kmh NW 7.4 mph11.9 kmh 30.11 in1019.6 mb 0.00 in0.0 mm 0.00 in0.0 mm 0.00 in0.0 mm
06:37 AM 50.2°F10.1°C 42.3°F5.7°C 74% 6.5 mph W10.5 kmh W 6.7 mph10.8 kmh 30.11 in1019.6 mb 0.00 in0.0 mm 0.00 in0.0 mm 0.00 in0.0 mm
06:35 AM 50.2°F10.1°C 42.3°F5.7°C 74% 7.4 mph WNW11.9 kmh WNW 14.8 mph23.8 kmh 30.11 in1019.6 mb 0.00 in0.0 mm 0.00 in0.0 mm 0.00 in0.0 mm
06:33 AM 50.2°F10.1°C 42.3°F5.7°C 74% 7.8 mph 12.6 kmh 11.9 mph19.2 kmh 30.11 in1019.6 mb 0.00 in0.0 mm 0.00 in0.0 mm 0.00 in0.0 mm
06:31 AM 50.0°F10.0°C 42.1°F5.6°C 74% 7.2 mph NNW11.6 kmh NNW 11.2 mph18.0 kmh 30.12 in1020.0 mb 0.00 in0.0 mm 0.00 in0.0 mm 0.00 in0.0 mm
06:29 AM 50.0°F10.0°C 42.1°F5.6°C 74% 6.3 mph W10.1 kmh W 11.4 mph18.3 kmh 30.11 in1019.6 mb 0.00 in0.0 mm 0.00 in0.0 mm 0.00 in0.0 mm
06:27 AM 50.2°F10.1°C 42.3°F5.7°C 74% 6.0 mph WNW9.7 kmh WNW 10.1 mph16.3 kmh 30.11 in1019.6 mb 0.00 in0.0 mm 0.00 in0.0 mm 0.00 in0.0 mm
06:25 AM 50.2°F10.1°C 42.3°F5.7°C 74% 5.4 mph NW8.7 kmh NW 9.6 mph15.4 kmh 30.11 in1019.6 mb 0.00 in0.0 mm 0.00 in0.0 mm 0.00 in0.0 mm
06:23 AM 50.2°F10.1°C 42.3°F5.7°C 74% 6.3 mph WNW10.1 kmh WNW 7.2 mph11.6 kmh 30.11 in1019.6 mb 0.00 in0.0 mm 0.00 in0.0 mm 0.00 in0.0 mm
06:20 AM 50.2°F10.1°C 42.3°F5.7°C 74% 7.6 mph WNW12.2 kmh WNW 19.5 mph31.4 kmh 30.11 in1019.6 mb 0.00 in0.0 mm 0.00 in0.0 mm 0.00 in0.0 mm
06:18 AM 50.2°F10.1°C 42.3°F5.7°C 74% 5.6 mph W9.0 kmh W 11.0 mph17.7 kmh 30.11 in1019.6 mb 0.00 in0.0 mm 0.00 in0.0 mm 0.00 in0.0 mm
06:16 AM 50.2°F10.1°C 42.3°F5.7°C 74% 5.1 mph NW8.2 kmh NW 8.5 mph13.7 kmh 30.11 in1019.6 mb 0.00 in0.0 mm 0.00 in0.0 mm 0.00 in0.0 mm
06:14 AM 50.2°F10.1°C 42.3°F5.7°C 74% 6.3 mph NW10.1 kmh NW 9.2 mph14.8 kmh 30.11 in1019.6 mb 0.00 in0.0 mm 0.00 in0.0 mm 0.00 in0.0 mm
06:12 AM 50.2°F10.1°C 42.3°F5.7°C 74% 6.5 mph NNW10.5 kmh NNW 11.2 mph18.0 kmh 30.11 in1019.6 mb 0.00 in0.0 mm 0.00 in0.0 mm 0.00 in0.0 mm
06:10 AM 50.2°F10.1°C 42.3°F5.7°C 74% 6.7 mph W10.8 kmh W 11.6 mph18.7 kmh 30.11 in1019.6 mb 0.00 in0.0 mm 0.00 in0.0 mm 0.00 in0.0 mm
06:07 AM 50.2°F10.1°C 42.3°F5.7°C 74% 6.3 mph NNE10.1 kmh NNE 11.2 mph18.0 kmh 30.11 in1019.6 mb 0.00 in0.0 mm 0.00 in0.0 mm 0.00 in0.0 mm
06:05 AM 50.2°F10.1°C 42.3°F5.7°C 74% 6.9 mph WSW11.1 kmh WSW 13.2 mph21.2 kmh 30.11 in1019.6 mb 0.00 in0.0 mm 0.00 in0.0 mm 0.00 in0.0 mm
06:03 AM 50.2°F10.1°C 42.3°F5.7°C 74% 8.5 mph W13.7 kmh W 13.0 mph20.9 kmh 30.11 in1019.6 mb 0.00 in0.0 mm 0.00 in0.0 mm 0.00 in0.0 mm
06:01 AM 50.2°F10.1°C 42.3°F5.7°C 74% 8.7 mph WNW14.0 kmh WNW 13.0 mph20.9 kmh 30.10 in1019.3 mb 0.00 in0.0 mm 0.00 in0.0 mm 0.00 in0.0 mm
05:59 AM 50.2°F10.1°C 42.6°F5.9°C 75% 8.7 mph 14.0 kmh 12.5 mph20.1 kmh 30.11 in1019.6 mb 0.00 in0.0 mm 0.00 in0.0 mm 0.00 in0.0 mm
05:57 AM 50.2°F10.1°C 42.6°F5.9°C 75% 8.3 mph NW13.4 kmh NW 15.7 mph25.3 kmh 30.11 in1019.6 mb 0.00 in0.0 mm 0.00 in0.0 mm 0.00 in0.0 mm
05:54 AM 50.0°F10.0°C 42.1°F5.6°C 74% 6.9 mph W11.1 kmh W 11.2 mph18.0 kmh 30.10 in1019.3 mb 0.00 in0.0 mm 0.00 in0.0 mm 0.00 in0.0 mm
05:52 AM 49.8°F9.9°C 41.9°F5.5°C 74% 6.5 mph WNW10.5 kmh WNW 13.6 mph21.9 kmh 30.10 in1019.3 mb 0.00 in0.0 mm 0.00 in0.0 mm 0.00 in0.0 mm
05:50 AM 50.2°F10.1°C 42.3°F5.7°C 74% 5.6 mph NW9.0 kmh NW 8.1 mph13.0 kmh 30.10 in1019.3 mb 0.00 in0.0 mm 0.00 in0.0 mm 0.00 in0.0 mm
05:48 AM 50.2°F10.1°C 42.3°F5.7°C 74% 6.7 mph WNW10.8 kmh WNW 12.3 mph19.8 kmh 30.11 in1019.6 mb 0.00 in0.0 mm 0.00 in0.0 mm 0.00 in0.0 mm
05:45 AM 50.2°F10.1°C 41.9°F5.5°C 73% 6.3 mph NNW10.1 kmh NNW 17.2 mph27.7 kmh 30.11 in1019.6 mb 0.00 in0.0 mm 0.00 in0.0 mm 0.00 in0.0 mm
05:43 AM 50.2°F10.1°C 41.9°F5.5°C 73% 7.4 mph 11.9 kmh 17.2 mph27.7 kmh 30.11 in1019.6 mb 0.00 in0.0 mm 0.00 in0.0 mm 0.00 in0.0 mm
05:41 AM 50.2°F10.1°C 41.9°F5.5°C 73% 8.1 mph NW13.0 kmh NW 13.9 mph22.4 kmh 30.11 in1019.6 mb 0.00 in0.0 mm 0.00 in0.0 mm 0.00 in0.0 mm
05:39 AM 50.2°F10.1°C 41.9°F5.5°C 73% 9.4 mph NNW15.1 kmh NNW 18.1 mph29.1 kmh 30.11 in1019.6 mb 0.00 in0.0 mm 0.00 in0.0 mm 0.00 in0.0 mm
05:36 AM 50.4°F10.2°C 42.1°F5.6°C 73% 9.4 mph NNW15.1 kmh NNW 13.0 mph20.9 kmh 30.11 in1019.6 mb 0.00 in0.0 mm 0.00 in0.0 mm 0.00 in0.0 mm
05:34 AM 50.2°F10.1°C 41.9°F5.5°C 73% 10.1 mph W16.3 kmh W 19.7 mph31.7 kmh 30.11 in1019.6 mb 0.00 in0.0 mm 0.00 in0.0 mm 0.00 in0.0 mm
05:32 AM 50.2°F10.1°C 41.9°F5.5°C 73% 10.1 mph W16.3 kmh W 16.8 mph27.0 kmh 30.10 in1019.3 mb 0.00 in0.0 mm 0.00 in0.0 mm 0.00 in0.0 mm
05:30 AM 50.2°F10.1°C 41.9°F5.5°C 73% 9.4 mph NNW15.1 kmh NNW 14.5 mph23.3 kmh 30.11 in1019.6 mb 0.00 in0.0 mm 0.00 in0.0 mm 0.00 in0.0 mm
05:27 AM 50.2°F10.1°C 42.3°F5.7°C 74% 7.4 mph WSW11.9 kmh WSW 8.3 mph13.4 kmh 30.11 in1019.6 mb 0.00 in0.0 mm 0.00 in0.0 mm 0.00 in0.0 mm
05:25 AM 50.2°F10.1°C 42.3°F5.7°C 74% 7.6 mph W12.2 kmh W 15.2 mph24.5 kmh 30.10 in1019.3 mb 0.00 in0.0 mm 0.00 in0.0 mm 0.00 in0.0 mm
05:23 AM 50.2°F10.1°C 42.3°F5.7°C 74% 5.1 mph W8.2 kmh W 7.4 mph11.9 kmh 30.11 in1019.6 mb 0.00 in0.0 mm 0.00 in0.0 mm 0.00 in0.0 mm
05:21 AM 50.2°F10.1°C 42.3°F5.7°C 74% 5.6 mph NW9.0 kmh NW 8.1 mph13.0 kmh 30.11 in1019.6 mb 0.00 in0.0 mm 0.00 in0.0 mm 0.00 in0.0 mm
05:18 AM 50.2°F10.1°C 42.3°F5.7°C 74% 6.3 mph WNW10.1 kmh WNW 8.9 mph14.3 kmh 30.11 in1019.6 mb 0.00 in0.0 mm 0.00 in0.0 mm 0.00 in0.0 mm
05:16 AM 50.2°F10.1°C 42.3°F5.7°C 74% 6.7 mph W10.8 kmh W 10.3 mph16.6 kmh 30.11 in1019.6 mb 0.00 in0.0 mm 0.00 in0.0 mm 0.00 in0.0 mm
05:14 AM 50.2°F10.1°C 42.3°F5.7°C 74% 7.4 mph NNW11.9 kmh NNW 11.9 mph19.2 kmh 30.11 in1019.6 mb 0.00 in0.0 mm 0.00 in0.0 mm 0.00 in0.0 mm
05:12 AM 50.2°F10.1°C 42.3°F5.7°C 74% 7.2 mph SE11.6 kmh SE 16.8 mph27.0 kmh 30.11 in1019.6 mb 0.00 in0.0 mm 0.00 in0.0 mm 0.00 in0.0 mm
05:09 AM 50.2°F10.1°C 42.3°F5.7°C 74% 6.3 mph NW10.1 kmh NW 8.3 mph13.4 kmh 30.11 in1019.6 mb 0.00 in0.0 mm 0.00 in0.0 mm 0.00 in0.0 mm
05:07 AM 50.2°F10.1°C 42.3°F5.7°C 74% 7.2 mph WNW11.6 kmh WNW 12.1 mph19.5 kmh 30.11 in1019.6 mb 0.00 in0.0 mm 0.00 in0.0 mm 0.00 in0.0 mm
05:05 AM 50.2°F10.1°C 42.3°F5.7°C 74% 6.7 mph W10.8 kmh W 10.1 mph16.3 kmh 30.11 in1019.6 mb 0.00 in0.0 mm 0.00 in0.0 mm 0.00 in0.0 mm
05:03 AM 50.2°F10.1°C 42.3°F5.7°C 74% 8.3 mph NW13.4 kmh NW 13.9 mph22.4 kmh 30.11 in1019.6 mb 0.00 in0.0 mm 0.00 in0.0 mm 0.00 in0.0 mm
05:01 AM 50.2°F10.1°C 42.3°F5.7°C 74% 8.5 mph W13.7 kmh W 17.2 mph27.7 kmh 30.11 in1019.6 mb 0.00 in0.0 mm 0.00 in0.0 mm 0.00 in0.0 mm
04:59 AM 50.0°F10.0°C 42.1°F5.6°C 74% 7.2 mph WNW11.6 kmh WNW 9.8 mph15.8 kmh 30.11 in1019.6 mb 0.00 in0.0 mm 0.00 in0.0 mm 0.00 in0.0 mm
04:56 AM 50.2°F10.1°C 42.3°F5.7°C 74% 6.5 mph W10.5 kmh W 12.1 mph19.5 kmh 30.11 in1019.6 mb 0.00 in0.0 mm 0.00 in0.0 mm 0.00 in0.0 mm
04:54 AM 50.2°F10.1°C 42.3°F5.7°C 74% 4.9 mph NW7.9 kmh NW 6.3 mph10.1 kmh 30.11 in1019.6 mb 0.00 in0.0 mm 0.00 in0.0 mm 0.00 in0.0 mm
04:52 AM 50.2°F10.1°C 42.3°F5.7°C 74% 6.7 mph NNE10.8 kmh NNE 9.6 mph15.4 kmh 30.11 in1019.6 mb 0.00 in0.0 mm 0.00 in0.0 mm 0.00 in0.0 mm
04:50 AM 50.2°F10.1°C 42.3°F5.7°C 74% 7.6 mph WNW12.2 kmh WNW 10.7 mph17.2 kmh 30.11 in1019.6 mb 0.00 in0.0 mm 0.00 in0.0 mm 0.00 in0.0 mm
04:48 AM 50.2°F10.1°C 42.3°F5.7°C 74% 7.8 mph NW12.6 kmh NW 14.5 mph23.3 kmh 30.11 in1019.6 mb 0.00 in0.0 mm 0.00 in0.0 mm 0.00 in0.0 mm
04:45 AM 50.2°F10.1°C 42.3°F5.7°C 74% 7.4 mph W11.9 kmh W 11.6 mph18.7 kmh 30.11 in1019.6 mb 0.00 in0.0 mm 0.00 in0.0 mm 0.00 in0.0 mm
04:43 AM 50.2°F10.1°C 42.3°F5.7°C 74% 8.7 mph 14.0 kmh 15.7 mph25.3 kmh 30.12 in1020.0 mb 0.00 in0.0 mm 0.00 in0.0 mm 0.00 in0.0 mm
04:41 AM 50.0°F10.0°C 42.4°F5.8°C 75% 6.3 mph NNW10.1 kmh NNW 13.2 mph21.2 kmh 30.11 in1019.6 mb 0.00 in0.0 mm 0.00 in0.0 mm 0.00 in0.0 mm
04:39 AM 50.0°F10.0°C 42.4°F5.8°C 75% 5.1 mph W8.2 kmh W 11.6 mph18.7 kmh 30.11 in1019.6 mb 0.00 in0.0 mm 0.00 in0.0 mm 0.00 in0.0 mm
04:37 AM 50.0°F10.0°C 42.4°F5.8°C 75% 4.7 mph WSW7.6 kmh WSW 8.5 mph13.7 kmh 30.11 in1019.6 mb 0.00 in0.0 mm 0.00 in0.0 mm 0.00 in0.0 mm
04:34 AM 50.2°F10.1°C 42.6°F5.9°C 75% 4.5 mph WNW7.2 kmh WNW 10.1 mph16.3 kmh 30.11 in1019.6 mb 0.00 in0.0 mm 0.00 in0.0 mm 0.00 in0.0 mm
04:32 AM 50.2°F10.1°C 42.3°F5.7°C 74% 4.0 mph NW6.4 kmh NW 7.4 mph11.9 kmh 30.11 in1019.6 mb 0.00 in0.0 mm 0.00 in0.0 mm 0.00 in0.0 mm
04:30 AM 50.2°F10.1°C 42.3°F5.7°C 74% 4.0 mph 6.4 kmh 4.9 mph7.9 kmh 30.11 in1019.6 mb 0.00 in0.0 mm 0.00 in0.0 mm 0.00 in0.0 mm
04:28 AM 50.2°F10.1°C 42.3°F5.7°C 74% 4.7 mph 7.6 kmh 11.2 mph18.0 kmh 30.11 in1019.6 mb 0.00 in0.0 mm 0.00 in0.0 mm 0.00 in0.0 mm
04:26 AM 50.4°F10.2°C 42.4°F5.8°C 74% 5.4 mph WNW8.7 kmh WNW 4.5 mph7.2 kmh 30.12 in1020.0 mb 0.00 in0.0 mm 0.00 in0.0 mm 0.00 in0.0 mm
04:23 AM 50.4°F10.2°C 42.4°F5.8°C 74% 7.4 mph NNW11.9 kmh NNW 13.0 mph20.9 kmh 30.12 in1020.0 mb 0.00 in0.0 mm 0.00 in0.0 mm 0.00 in0.0 mm
04:21 AM 50.4°F10.2°C 42.4°F5.8°C 74% 6.9 mph WSW11.1 kmh WSW 10.7 mph17.2 kmh 30.12 in1020.0 mb 0.00 in0.0 mm 0.00 in0.0 mm 0.00 in0.0 mm
04:19 AM 50.4°F10.2°C 42.4°F5.8°C 74% 8.3 mph NNW13.4 kmh NNW 17.9 mph28.8 kmh 30.12 in1020.0 mb 0.00 in0.0 mm 0.00 in0.0 mm 0.00 in0.0 mm
04:16 AM 50.2°F10.1°C 42.3°F5.7°C 74% 6.3 mph WSW10.1 kmh WSW 6.7 mph10.8 kmh 30.12 in1020.0 mb 0.00 in0.0 mm 0.00 in0.0 mm 0.00 in0.0 mm
04:14 AM 50.2°F10.1°C 42.3°F5.7°C 74% 7.6 mph WNW12.2 kmh WNW 14.1 mph22.7 kmh 30.12 in1020.0 mb 0.00 in0.0 mm 0.00 in0.0 mm 0.00 in0.0 mm
04:12 AM 50.2°F10.1°C 42.3°F5.7°C 74% 6.9 mph WNW11.1 kmh WNW 9.8 mph15.8 kmh 30.12 in1020.0 mb 0.00 in0.0 mm 0.00 in0.0 mm 0.00 in0.0 mm
04:09 AM 50.2°F10.1°C 42.3°F5.7°C 74% 8.7 mph NW14.0 kmh NW 18.1 mph29.1 kmh 30.12 in1020.0 mb 0.00 in0.0 mm 0.00 in0.0 mm 0.00 in0.0 mm
04:07 AM 50.4°F10.2°C 42.4°F5.8°C 74% 7.2 mph NW11.6 kmh NW 12.8 mph20.6 kmh 30.12 in1020.0 mb 0.00 in0.0 mm 0.00 in0.0 mm 0.00 in0.0 mm
04:05 AM 50.2°F10.1°C 42.3°F5.7°C 74% 7.2 mph NW11.6 kmh NW 11.0 mph17.7 kmh 30.12 in1020.0 mb 0.00 in0.0 mm 0.00 in0.0 mm 0.00 in0.0 mm
04:03 AM 50.4°F10.2°C 42.4°F5.8°C 74% 7.2 mph NW11.6 kmh NW 12.5 mph20.1 kmh 30.12 in1020.0 mb 0.00 in0.0 mm 0.00 in0.0 mm 0.00 in0.0 mm
04:00 AM 50.2°F10.1°C 42.3°F5.7°C 74% 5.8 mph WNW9.3 kmh WNW 6.3 mph10.1 kmh 30.12 in1020.0 mb 0.00 in0.0 mm 0.00 in0.0 mm 0.00 in0.0 mm
03:58 AM 50.4°F10.2°C 42.4°F5.8°C 74% 6.7 mph NNE10.8 kmh NNE 8.7 mph14.0 kmh 30.12 in1020.0 mb 0.00 in0.0 mm 0.00 in0.0 mm 0.00 in0.0 mm
03:56 AM 50.2°F10.1°C 42.3°F5.7°C 74% 7.4 mph NE11.9 kmh NE 15.0 mph24.1 kmh 30.11 in1019.6 mb 0.00 in0.0 mm 0.00 in0.0 mm 0.00 in0.0 mm
03:54 AM 50.4°F10.2°C 42.4°F5.8°C 74% 6.7 mph NE10.8 kmh NE 12.5 mph20.1 kmh 30.12 in1020.0 mb 0.00 in0.0 mm 0.00 in0.0 mm 0.00 in0.0 mm
03:52 AM 50.4°F10.2°C 42.4°F5.8°C 74% 5.4 mph NNW8.7 kmh NNW 5.6 mph9.0 kmh 30.11 in1019.6 mb 0.00 in0.0 mm 0.00 in0.0 mm 0.00 in0.0 mm
03:50 AM 50.4°F10.2°C 42.4°F5.8°C 74% 6.9 mph NNW11.1 kmh NNW 10.3 mph16.6 kmh 30.11 in1019.6 mb 0.00 in0.0 mm 0.00 in0.0 mm 0.00 in0.0 mm
03:48 AM 50.4°F10.2°C 42.4°F5.8°C 74% 7.6 mph NNW12.2 kmh NNW 15.0 mph24.1 kmh 30.12 in1020.0 mb 0.00 in0.0 mm 0.00 in0.0 mm 0.00 in0.0 mm
03:45 AM 50.4°F10.2°C 42.4°F5.8°C 74% 7.8 mph WSW12.6 kmh WSW 17.2 mph27.7 kmh 30.11 in1019.6 mb 0.00 in0.0 mm 0.00 in0.0 mm 0.00 in0.0 mm
03:43 AM 50.4°F10.2°C 42.4°F5.8°C 74% 8.3 mph W13.4 kmh W 8.7 mph14.0 kmh 30.11 in1019.6 mb 0.00 in0.0 mm 0.00 in0.0 mm 0.00 in0.0 mm
03:41 AM 50.4°F10.2°C 42.4°F5.8°C 74% 9.8 mph SSE15.8 kmh SSE 20.8 mph33.5 kmh 30.11 in1019.6 mb 0.00 in0.0 mm 0.00 in0.0 mm 0.00 in0.0 mm
03:39 AM 50.5°F10.3°C 42.6°F5.9°C 74% 8.5 mph NNE13.7 kmh NNE 11.6 mph18.7 kmh 30.11 in1019.6 mb 0.00 in0.0 mm 0.00 in0.0 mm 0.00 in0.0 mm
03:37 AM 50.4°F10.2°C 42.4°F5.8°C 74% 8.1 mph NW13.0 kmh NW 11.0 mph17.7 kmh 30.11 in1019.6 mb 0.00 in0.0 mm 0.00 in0.0 mm 0.00 in0.0 mm
03:34 AM 50.4°F10.2°C 42.4°F5.8°C 74% 8.5 mph ENE13.7 kmh ENE 12.3 mph19.8 kmh 30.11 in1019.6 mb 0.00 in0.0 mm 0.00 in0.0 mm 0.00 in0.0 mm
03:32 AM 50.4°F10.2°C 42.4°F5.8°C 74% 8.3 mph 13.4 kmh 17.0 mph27.4 kmh 30.11 in1019.6 mb 0.00 in0.0 mm 0.00 in0.0 mm 0.00 in0.0 mm
03:30 AM 50.2°F10.1°C 42.3°F5.7°C 74% 6.7 mph NNE10.8 kmh NNE 11.0 mph17.7 kmh 30.11 in1019.6 mb 0.00 in0.0 mm 0.00 in0.0 mm 0.00 in0.0 mm
03:28 AM 50.2°F10.1°C 42.3°F5.7°C 74% 6.7 mph NNE10.8 kmh NNE 13.0 mph20.9 kmh 30.11 in1019.6 mb 0.00 in0.0 mm 0.00 in0.0 mm 0.00 in0.0 mm
03:25 AM 50.2°F10.1°C 42.3°F5.7°C 74% 6.5 mph W10.5 kmh W 11.4 mph18.3 kmh 30.11 in1019.6 mb 0.00 in0.0 mm 0.00 in0.0 mm 0.00 in0.0 mm
03:23 AM 50.2°F10.1°C 42.3°F5.7°C 74% 6.0 mph W9.7 kmh W 10.3 mph16.6 kmh 30.11 in1019.6 mb 0.00 in0.0 mm 0.00 in0.0 mm 0.00 in0.0 mm
03:21 AM 50.2°F10.1°C 42.3°F5.7°C 74% 6.5 mph ENE10.5 kmh ENE 10.7 mph17.2 kmh 30.11 in1019.6 mb 0.00 in0.0 mm 0.00 in0.0 mm 0.00 in0.0 mm
03:19 AM 50.2°F10.1°C 42.3°F5.7°C 74% 7.8 mph NW12.6 kmh NW 19.0 mph30.6 kmh 30.12 in1020.0 mb 0.00 in0.0 mm 0.00 in0.0 mm 0.00 in0.0 mm
03:16 AM 50.4°F10.2°C 42.4°F5.8°C 74% 7.4 mph WNW11.9 kmh WNW 13.2 mph21.2 kmh 30.12 in1020.0 mb 0.00 in0.0 mm 0.00 in0.0 mm 0.00 in0.0 mm
03:14 AM 50.4°F10.2°C 42.4°F5.8°C 74% 8.1 mph WNW13.0 kmh WNW 13.4 mph21.6 kmh 30.12 in1020.0 mb 0.00 in0.0 mm 0.00 in0.0 mm 0.00 in0.0 mm
03:12 AM 50.4°F10.2°C 42.4°F5.8°C 74% 8.3 mph WNW13.4 kmh WNW 11.2 mph18.0 kmh 30.11 in1019.6 mb 0.00 in0.0 mm 0.00 in0.0 mm 0.00 in0.0 mm
03:10 AM 50.4°F10.2°C 42.4°F5.8°C 74% 9.6 mph NW15.4 kmh NW 20.1 mph32.3 kmh 30.11 in1019.6 mb 0.00 in0.0 mm 0.00 in0.0 mm 0.00 in0.0 mm
03:08 AM 50.2°F10.1°C 42.3°F5.7°C 74% 9.4 mph 15.1 kmh 19.2 mph30.9 kmh 30.11 in1019.6 mb 0.00 in0.0 mm 0.00 in0.0 mm 0.00 in0.0 mm
03:05 AM 50.2°F10.1°C 42.3°F5.7°C 74% 7.6 mph NW12.2 kmh NW 9.6 mph15.4 kmh 30.11 in1019.6 mb 0.00 in0.0 mm 0.00 in0.0 mm 0.00 in0.0 mm
03:03 AM 50.2°F10.1°C 42.6°F5.9°C 75% 6.9 mph NNW11.1 kmh NNW 11.9 mph19.2 kmh 30.11 in1019.6 mb 0.00 in0.0 mm 0.00 in0.0 mm 0.00 in0.0 mm
03:01 AM 50.2°F10.1°C 42.6°F5.9°C 75% 7.6 mph WSW12.2 kmh WSW 13.0 mph20.9 kmh 30.11 in1019.6 mb 0.00 in0.0 mm 0.00 in0.0 mm 0.00 in0.0 mm
02:59 AM 50.4°F10.2°C 42.8°F6.0°C 75% 6.5 mph WNW10.5 kmh WNW 13.4 mph21.6 kmh 30.11 in1019.6 mb 0.00 in0.0 mm 0.00 in0.0 mm 0.00 in0.0 mm
02:56 AM 50.4°F10.2°C 42.4°F5.8°C 74% 7.4 mph S11.9 kmh S 9.8 mph15.8 kmh 30.11 in1019.6 mb 0.00 in0.0 mm 0.00 in0.0 mm 0.00 in0.0 mm
02:54 AM 50.4°F10.2°C 42.4°F5.8°C 74% 9.2 mph NW14.8 kmh NW 16.1 mph25.9 kmh 30.11 in1019.6 mb 0.00 in0.0 mm 0.00 in0.0 mm 0.00 in0.0 mm
02:52 AM 50.4°F10.2°C 42.4°F5.8°C 74% 8.3 mph WSW13.4 kmh WSW 9.8 mph15.8 kmh 30.11 in1019.6 mb 0.00 in0.0 mm 0.00 in0.0 mm 0.00 in0.0 mm
02:50 AM 50.4°F10.2°C 42.4°F5.8°C 74% 10.7 mph WSW17.2 kmh WSW 18.1 mph29.1 kmh 30.11 in1019.6 mb 0.00 in0.0 mm 0.00 in0.0 mm 0.00 in0.0 mm
02:47 AM 50.4°F10.2°C 42.1°F5.6°C 73% 8.5 mph W13.7 kmh W 16.8 mph27.0 kmh 30.11 in1019.6 mb 0.00 in0.0 mm 0.00 in0.0 mm 0.00 in0.0 mm
02:45 AM 50.4°F10.2°C 42.1°F5.6°C 73% 6.9 mph SW11.1 kmh SW 11.2 mph18.0 kmh 30.11 in1019.6 mb 0.00 in0.0 mm 0.00 in0.0 mm 0.00 in0.0 mm
02:43 AM 50.4°F10.2°C 42.4°F5.8°C 74% 6.5 mph E10.5 kmh E 10.7 mph17.2 kmh 30.12 in1020.0 mb 0.00 in0.0 mm 0.00 in0.0 mm 0.00 in0.0 mm
02:41 AM 50.4°F10.2°C 42.4°F5.8°C 74% 7.2 mph WNW11.6 kmh WNW 16.3 mph26.2 kmh 30.12 in1020.0 mb 0.00 in0.0 mm 0.00 in0.0 mm 0.00 in0.0 mm
02:38 AM 50.4°F10.2°C 42.4°F5.8°C 74% 5.8 mph WSW9.3 kmh WSW 9.2 mph14.8 kmh 30.12 in1020.0 mb 0.00 in0.0 mm 0.00 in0.0 mm 0.00 in0.0 mm
02:36 AM 50.2°F10.1°C 41.9°F5.5°C 73% 6.5 mph SW10.5 kmh SW 9.6 mph15.4 kmh 30.11 in1019.6 mb 0.00 in0.0 mm 0.00 in0.0 mm 0.00 in0.0 mm
02:34 AM 50.2°F10.1°C 41.9°F5.5°C 73% 6.5 mph NNE10.5 kmh NNE 10.3 mph16.6 kmh 30.11 in1019.6 mb 0.00 in0.0 mm 0.00 in0.0 mm 0.00 in0.0 mm
02:32 AM 50.2°F10.1°C 41.9°F5.5°C 73% 6.0 mph WSW9.7 kmh WSW 11.0 mph17.7 kmh 30.11 in1019.6 mb 0.00 in0.0 mm 0.00 in0.0 mm 0.00 in0.0 mm
02:29 AM 50.2°F10.1°C 41.9°F5.5°C 73% 6.3 mph NNE10.1 kmh NNE 8.1 mph13.0 kmh 30.11 in1019.6 mb 0.00 in0.0 mm 0.00 in0.0 mm 0.00 in0.0 mm
02:27 AM 50.4°F10.2°C 42.1°F5.6°C 73% 7.6 mph W12.2 kmh W 15.7 mph25.3 kmh 30.11 in1019.6 mb 0.00 in0.0 mm 0.00 in0.0 mm 0.00 in0.0 mm
02:25 AM 50.2°F10.1°C 41.9°F5.5°C 73% 6.7 mph NW10.8 kmh NW 7.8 mph12.6 kmh 30.11 in1019.6 mb 0.00 in0.0 mm 0.00 in0.0 mm 0.00 in0.0 mm
02:23 AM 50.2°F10.1°C 42.3°F5.7°C 74% 7.2 mph NW11.6 kmh NW 11.6 mph18.7 kmh 30.11 in1019.6 mb 0.00 in0.0 mm 0.00 in0.0 mm 0.00 in0.0 mm
02:21 AM 50.2°F10.1°C 42.3°F5.7°C 74% 7.4 mph 11.9 kmh 12.8 mph20.6 kmh 30.11 in1019.6 mb 0.00 in0.0 mm 0.00 in0.0 mm 0.00 in0.0 mm
02:18 AM 50.2°F10.1°C 42.3°F5.7°C 74% 6.5 mph 10.5 kmh 11.0 mph17.7 kmh 30.11 in1019.6 mb 0.00 in0.0 mm 0.00 in0.0 mm 0.00 in0.0 mm
02:16 AM 50.2°F10.1°C 42.3°F5.7°C 74% 6.7 mph WNW10.8 kmh WNW 7.4 mph11.9 kmh 30.11 in1019.6 mb 0.00 in0.0 mm 0.00 in0.0 mm 0.00 in0.0 mm
02:14 AM 50.4°F10.2°C 42.1°F5.6°C 73% 8.1 mph 13.0 kmh 11.6 mph18.7 kmh 30.11 in1019.6 mb 0.00 in0.0 mm 0.00 in0.0 mm 0.00 in0.0 mm
02:12 AM 50.4°F10.2°C 42.1°F5.6°C 73% 7.6 mph 12.2 kmh 13.9 mph22.4 kmh 30.11 in1019.6 mb 0.00 in0.0 mm 0.00 in0.0 mm 0.00 in0.0 mm
02:10 AM 50.4°F10.2°C 41.7°F5.4°C 72% 6.5 mph 10.5 kmh 10.1 mph16.3 kmh 30.11 in1019.6 mb 0.00 in0.0 mm 0.00 in0.0 mm 0.00 in0.0 mm
02:07 AM 50.4°F10.2°C 41.7°F5.4°C 72% 6.3 mph E10.1 kmh E 13.0 mph20.9 kmh 30.11 in1019.6 mb 0.00 in0.0 mm 0.00 in0.0 mm 0.00 in0.0 mm
02:05 AM 50.5°F10.3°C 41.9°F5.5°C 72% 5.8 mph WNW9.3 kmh WNW 12.5 mph20.1 kmh 30.11 in1019.6 mb 0.00 in0.0 mm 0.00 in0.0 mm 0.00 in0.0 mm
02:03 AM 50.5°F10.3°C 42.3°F5.7°C 73% 7.8 mph WNW12.6 kmh WNW -- 30.11 in1019.6 mb 0.00 in0.0 mm 0.00 in0.0 mm 0.00 in0.0 mm
01:58 AM 50.5°F10.3°C 42.3°F5.7°C 73% 9.4 mph SSW15.1 kmh SSW 13.9 mph22.4 kmh 30.11 in1019.6 mb 0.00 in0.0 mm 0.00 in0.0 mm 0.00 in0.0 mm
01:56 AM 50.5°F10.3°C 42.3°F5.7°C 73% 9.4 mph 15.1 kmh 20.6 mph33.2 kmh 30.11 in1019.6 mb 0.00 in0.0 mm 0.00 in0.0 mm 0.00 in0.0 mm
01:54 AM 50.7°F10.4°C 42.4°F5.8°C 73% 7.4 mph 11.9 kmh 10.1 mph16.3 kmh 30.11 in1019.6 mb 0.00 in0.0 mm 0.00 in0.0 mm 0.00 in0.0 mm
01:51 AM 50.5°F10.3°C 42.3°F5.7°C 73% 8.5 mph WNW13.7 kmh WNW 13.9 mph22.4 kmh 30.11 in1019.6 mb 0.00 in0.0 mm 0.00 in0.0 mm 0.00 in0.0 mm
01:49 AM 50.5°F10.3°C 42.3°F5.7°C 73% 8.5 mph SE13.7 kmh SE 11.6 mph18.7 kmh 30.11 in1019.6 mb 0.00 in0.0 mm 0.00 in0.0 mm 0.00 in0.0 mm
01:47 AM 50.5°F10.3°C 42.6°F5.9°C 74% 10.1 mph W16.3 kmh W 17.0 mph27.4 kmh 30.11 in1019.6 mb 0.00 in0.0 mm 0.00 in0.0 mm 0.00 in0.0 mm
01:45 AM 50.5°F10.3°C 42.6°F5.9°C 74% 9.6 mph WSW15.4 kmh WSW 14.3 mph23.0 kmh 30.11 in1019.6 mb 0.00 in0.0 mm 0.00 in0.0 mm 0.00 in0.0 mm
01:43 AM 50.4°F10.2°C 42.4°F5.8°C 74% 9.2 mph NNW14.8 kmh NNW 13.0 mph20.9 kmh 30.11 in1019.6 mb 0.00 in0.0 mm 0.00 in0.0 mm 0.00 in0.0 mm
01:41 AM 50.4°F10.2°C 42.8°F6.0°C 75% 9.2 mph NNW14.8 kmh NNW 15.9 mph25.6 kmh 30.11 in1019.6 mb 0.00 in0.0 mm 0.00 in0.0 mm 0.00 in0.0 mm
01:38 AM 50.4°F10.2°C 42.8°F6.0°C 75% 8.7 mph NNW14.0 kmh NNW 16.1 mph25.9 kmh 30.11 in1019.6 mb 0.00 in0.0 mm 0.00 in0.0 mm 0.00 in0.0 mm
01:36 AM 50.5°F10.3°C 43.3°F6.3°C 76% 8.5 mph WNW13.7 kmh WNW 10.3 mph16.6 kmh 30.11 in1019.6 mb 0.00 in0.0 mm 0.00 in0.0 mm 0.00 in0.0 mm
01:34 AM 50.4°F10.2°C 43.2°F6.2°C 76% 9.2 mph NNW14.8 kmh NNW 16.6 mph26.7 kmh 30.11 in1019.6 mb 0.00 in0.0 mm 0.00 in0.0 mm 0.00 in0.0 mm
01:32 AM 50.5°F10.3°C 43.3°F6.3°C 76% 9.6 mph W15.4 kmh W 13.6 mph21.9 kmh 30.11 in1019.6 mb 0.00 in0.0 mm 0.00 in0.0 mm 0.00 in0.0 mm
01:29 AM 50.5°F10.3°C 43.3°F6.3°C 76% 11.0 mph W17.7 kmh W 16.8 mph27.0 kmh 30.11 in1019.6 mb 0.00 in0.0 mm 0.00 in0.0 mm 0.00 in0.0 mm
01:27 AM 50.5°F10.3°C 43.0°F6.1°C 75% 9.4 mph W15.1 kmh W 15.4 mph24.8 kmh 30.10 in1019.3 mb 0.00 in0.0 mm 0.00 in0.0 mm 0.00 in0.0 mm
01:25 AM 50.5°F10.3°C 43.0°F6.1°C 75% 8.3 mph NW13.4 kmh NW 12.8 mph20.6 kmh 30.10 in1019.3 mb 0.00 in0.0 mm 0.00 in0.0 mm 0.00 in0.0 mm
01:23 AM 50.5°F10.3°C 43.0°F6.1°C 75% 8.5 mph W13.7 kmh W 13.4 mph21.6 kmh 30.10 in1019.3 mb 0.00 in0.0 mm 0.00 in0.0 mm 0.00 in0.0 mm
01:21 AM 50.7°F10.4°C 43.2°F6.2°C 75% 8.3 mph NW13.4 kmh NW 9.8 mph15.8 kmh 30.10 in1019.3 mb 0.00 in0.0 mm 0.00 in0.0 mm 0.00 in0.0 mm
01:18 AM 50.7°F10.4°C 43.2°F6.2°C 75% 10.5 mph NNW16.9 kmh NNW 15.7 mph25.3 kmh 30.10 in1019.3 mb 0.00 in0.0 mm 0.00 in0.0 mm 0.00 in0.0 mm
01:16 AM 50.7°F10.4°C 43.2°F6.2°C 75% 9.2 mph W14.8 kmh W 11.4 mph18.3 kmh 30.11 in1019.6 mb 0.00 in0.0 mm 0.00 in0.0 mm 0.00 in0.0 mm
01:14 AM 50.5°F10.3°C 43.0°F6.1°C 75% 10.3 mph WSW16.6 kmh WSW 14.5 mph23.3 kmh 30.10 in1019.3 mb 0.00 in0.0 mm 0.00 in0.0 mm 0.00 in0.0 mm
01:12 AM 50.4°F10.2°C 43.2°F6.2°C 76% 9.6 mph 15.4 kmh 15.0 mph24.1 kmh 30.10 in1019.3 mb 0.00 in0.0 mm 0.00 in0.0 mm 0.00 in0.0 mm
01:09 AM 50.2°F10.1°C 43.5°F6.4°C 78% 9.2 mph WSW14.8 kmh WSW 14.3 mph23.0 kmh 30.11 in1019.6 mb 0.00 in0.0 mm 0.00 in0.0 mm 0.00 in0.0 mm
01:07 AM 50.2°F10.1°C 43.5°F6.4°C 78% 10.1 mph NNW16.3 kmh NNW 16.8 mph27.0 kmh 30.11 in1019.6 mb 0.00 in0.0 mm 0.00 in0.0 mm 0.00 in0.0 mm
01:05 AM 50.2°F10.1°C 43.5°F6.4°C 78% 8.5 mph WSW13.7 kmh WSW 12.8 mph20.6 kmh 30.11 in1019.6 mb 0.00 in0.0 mm 0.00 in0.0 mm 0.00 in0.0 mm
01:03 AM 50.4°F10.2°C 43.7°F6.5°C 78% 8.5 mph NW13.7 kmh NW 14.1 mph22.7 kmh 30.11 in1019.6 mb 0.00 in0.0 mm 0.00 in0.0 mm 0.00 in0.0 mm
01:01 AM 50.4°F10.2°C 43.7°F6.5°C 78% 7.6 mph WNW12.2 kmh WNW 8.1 mph13.0 kmh 30.11 in1019.6 mb 0.00 in0.0 mm 0.00 in0.0 mm 0.00 in0.0 mm
12:58 AM 50.4°F10.2°C 43.7°F6.5°C 78% 8.7 mph WNW14.0 kmh WNW 14.3 mph23.0 kmh 30.11 in1019.6 mb 0.00 in0.0 mm 0.00 in0.0 mm 0.00 in0.0 mm
12:56 AM 50.4°F10.2°C 43.7°F6.5°C 78% 9.4 mph WNW15.1 kmh WNW 15.4 mph24.8 kmh 30.11 in1019.6 mb 0.00 in0.0 mm 0.00 in0.0 mm 0.00 in0.0 mm
12:54 AM 50.4°F10.2°C 43.3°F6.3°C 77% 8.5 mph WNW13.7 kmh WNW 15.4 mph24.8 kmh 30.11 in1019.6 mb 0.00 in0.0 mm 0.00 in0.0 mm 0.00 in0.0 mm
12:52 AM 50.4°F10.2°C 43.3°F6.3°C 77% 7.4 mph NNE11.9 kmh NNE 8.5 mph13.7 kmh 30.11 in1019.6 mb 0.00 in0.0 mm 0.00 in0.0 mm 0.00 in0.0 mm
12:50 AM 50.4°F10.2°C 43.2°F6.2°C 76% 8.1 mph NNW13.0 kmh NNW 13.6 mph21.9 kmh 30.11 in1019.6 mb 0.00 in0.0 mm 0.00 in0.0 mm 0.00 in0.0 mm
12:47 AM 50.5°F10.3°C 43.3°F6.3°C 76% 8.1 mph W13.0 kmh W 12.1 mph19.5 kmh 30.11 in1019.6 mb 0.00 in0.0 mm 0.00 in0.0 mm 0.00 in0.0 mm
12:45 AM 50.5°F10.3°C 43.0°F6.1°C 75% 8.1 mph WNW13.0 kmh WNW 10.5 mph16.9 kmh 30.11 in1019.6 mb 0.00 in0.0 mm 0.00 in0.0 mm 0.00 in0.0 mm
12:43 AM 50.5°F10.3°C 43.0°F6.1°C 75% 8.1 mph WNW13.0 kmh WNW 14.8 mph23.8 kmh 30.11 in1019.6 mb 0.00 in0.0 mm 0.00 in0.0 mm 0.00 in0.0 mm
12:41 AM 50.4°F10.2°C 42.8°F6.0°C 75% 8.3 mph SW13.4 kmh SW 13.0 mph20.9 kmh 30.11 in1019.6 mb 0.00 in0.0 mm 0.00 in0.0 mm 0.00 in0.0 mm
12:39 AM 50.4°F10.2°C 43.2°F6.2°C 76% 7.6 mph NW12.2 kmh NW 11.9 mph19.2 kmh 30.11 in1019.6 mb 0.00 in0.0 mm 0.00 in0.0 mm 0.00 in0.0 mm
12:37 AM 50.2°F10.1°C 43.0°F6.1°C 76% 7.6 mph SW12.2 kmh SW 11.6 mph18.7 kmh 30.11 in1019.6 mb 0.00 in0.0 mm 0.00 in0.0 mm 0.00 in0.0 mm
12:35 AM 50.2°F10.1°C 43.0°F6.1°C 76% 6.0 mph W9.7 kmh W 6.9 mph11.1 kmh 30.11 in1019.6 mb 0.00 in0.0 mm 0.00 in0.0 mm 0.00 in0.0 mm
12:32 AM 50.2°F10.1°C 43.3°F6.3°C 77% 8.3 mph NNW13.4 kmh NNW 14.5 mph23.3 kmh 30.11 in1019.6 mb 0.00 in0.0 mm 0.00 in0.0 mm 0.00 in0.0 mm
12:30 AM 50.2°F10.1°C 43.3°F6.3°C 77% 7.6 mph NW12.2 kmh NW 13.0 mph20.9 kmh 30.11 in1019.6 mb 0.00 in0.0 mm 0.00 in0.0 mm 0.00 in0.0 mm
12:28 AM 50.2°F10.1°C 43.3°F6.3°C 77% 7.4 mph W11.9 kmh W 10.3 mph16.6 kmh 30.11 in1019.6 mb 0.00 in0.0 mm 0.00 in0.0 mm 0.00 in0.0 mm
12:26 AM 50.2°F10.1°C 43.0°F6.1°C 76% 8.5 mph NNE13.7 kmh NNE 11.4 mph18.3 kmh 30.11 in1019.6 mb 0.00 in0.0 mm 0.00 in0.0 mm 0.00 in0.0 mm
12:23 AM 50.2°F10.1°C 43.0°F6.1°C 76% 8.9 mph NW14.3 kmh NW 14.3 mph23.0 kmh 30.11 in1019.6 mb 0.00 in0.0 mm 0.00 in0.0 mm 0.00 in0.0 mm
12:21 AM 50.2°F10.1°C 43.0°F6.1°C 76% 9.6 mph NW15.4 kmh NW 14.5 mph23.3 kmh 30.11 in1019.6 mb 0.00 in0.0 mm 0.00 in0.0 mm 0.00 in0.0 mm
12:19 AM 50.2°F10.1°C 43.0°F6.1°C 76% 8.7 mph WNW14.0 kmh WNW 13.2 mph21.2 kmh 30.11 in1019.6 mb 0.00 in0.0 mm 0.00 in0.0 mm 0.00 in0.0 mm
12:17 AM 50.2°F10.1°C 43.3°F6.3°C 77% 9.8 mph NW15.8 kmh NW 16.6 mph26.7 kmh 30.11 in1019.6 mb 0.00 in0.0 mm 0.00 in0.0 mm 0.00 in0.0 mm
12:15 AM 50.0°F10.0°C 43.2°F6.2°C 77% 9.4 mph WSW15.1 kmh WSW 15.2 mph24.5 kmh 30.11 in1019.6 mb 0.00 in0.0 mm 0.00 in0.0 mm 0.00 in0.0 mm
12:13 AM 50.2°F10.1°C 43.5°F6.4°C 78% 9.4 mph WNW15.1 kmh WNW 23.5 mph37.8 kmh 30.11 in1019.6 mb 0.00 in0.0 mm 0.00 in0.0 mm 0.00 in0.0 mm
12:10 AM 49.8°F9.9°C 43.2°F6.2°C 78% 7.6 mph NNW12.2 kmh NNW 12.1 mph19.5 kmh 30.11 in1019.6 mb 0.00 in0.0 mm 0.00 in0.0 mm 0.00 in0.0 mm
12:08 AM 49.8°F9.9°C 43.2°F6.2°C 78% 6.7 mph WNW10.8 kmh WNW 15.9 mph25.6 kmh 30.11 in1019.6 mb 0.00 in0.0 mm 0.00 in0.0 mm 0.00 in0.0 mm
12:06 AM 49.8°F9.9°C 43.2°F6.2°C 78% 7.8 mph W12.6 kmh W 9.2 mph14.8 kmh 30.11 in1019.6 mb 0.00 in0.0 mm 0.00 in0.0 mm 0.00 in0.0 mm
12:04 AM 49.8°F9.9°C 43.2°F6.2°C 78% 8.9 mph NW14.3 kmh NW 13.2 mph21.2 kmh 30.11 in1019.6 mb 0.00 in0.0 mm 0.00 in0.0 mm 0.00 in0.0 mm
12:01 AM 49.8°F9.9°C 43.2°F6.2°C 78% 8.9 mph NNW14.3 kmh NNW 11.2 mph18.0 kmh 30.11 in1019.6 mb 0.00 in0.0 mm 0.00 in0.0 mm 0.00 in0.0 mm